sensor_id;sensor_type;location;lat;lon;timestamp;pressure;altitude;pressure_sealevel;temperature;humidity
24620;BME280;12763;55.802;37.404;2023-05-08T00:01:16;100962.00;;;4.56;67.72
24620;BME280;12763;55.802;37.404;2023-05-08T00:03:43;100952.53;;;4.50;69.81
24620;BME280;12763;55.802;37.404;2023-05-08T00:06:10;100951.97;;;4.47;70.58
24620;BME280;12763;55.802;37.404;2023-05-08T00:08:36;100955.72;;;4.55;69.52
24620;BME280;12763;55.802;37.404;2023-05-08T00:11:15;100958.56;;;4.63;69.53
24620;BME280;12763;55.802;37.404;2023-05-08T00:13:41;100953.66;;;4.67;68.32
24620;BME280;12763;55.802;37.404;2023-05-08T00:16:11;100955.41;;;4.58;68.78
24620;BME280;12763;55.802;37.404;2023-05-08T00:18:38;100964.03;;;4.63;68.21
24620;BME280;12763;55.802;37.404;2023-05-08T00:21:05;100963.88;;;4.74;67.92
24620;BME280;12763;55.802;37.404;2023-05-08T00:23:35;100963.88;;;4.74;67.13
24620;BME280;12763;55.802;37.404;2023-05-08T00:26:01;100971.50;;;4.61;68.29
24620;BME280;12763;55.802;37.404;2023-05-08T00:28:28;100974.41;;;4.50;70.07
24620;BME280;12763;55.802;37.404;2023-05-08T00:30:58;100969.53;;;4.44;71.10
24620;BME280;12763;55.802;37.404;2023-05-08T00:33:28;100970.38;;;4.26;71.74
24620;BME280;12763;55.802;37.404;2023-05-08T00:36:03;100976.16;;;4.32;72.62
24620;BME280;12763;55.802;37.404;2023-05-08T00:38:33;100979.03;;;4.31;72.93
24620;BME280;12763;55.802;37.404;2023-05-08T00:41:04;100981.03;;;4.19;73.73
24620;BME280;12763;55.802;37.404;2023-05-08T00:43:30;100978.44;;;4.08;74.09
24620;BME280;12763;55.802;37.404;2023-05-08T00:46:02;100974.28;;;4.13;73.71
24620;BME280;12763;55.802;37.404;2023-05-08T00:48:31;100985.94;;;4.25;72.82
24620;BME280;12763;55.802;37.404;2023-05-08T00:50:59;100979.03;;;4.40;71.28
24620;BME280;12763;55.802;37.404;2023-05-08T00:53:29;100982.31;;;4.34;71.40
24620;BME280;12763;55.802;37.404;2023-05-08T00:55:57;100977.16;;;4.22;72.01
24620;BME280;12763;55.802;37.404;2023-05-08T00:58:31;100978.56;;;4.06;74.16
24620;BME280;12763;55.802;37.404;2023-05-08T01:01:01;100987.63;;;4.07;75.69
24620;BME280;12763;55.802;37.404;2023-05-08T01:03:31;100980.44;;;4.06;75.39
24620;BME280;12763;55.802;37.404;2023-05-08T01:06:01;100982.47;;;4.23;74.59
24620;BME280;12763;55.802;37.404;2023-05-08T01:08:27;100989.94;;;4.02;76.31
24620;BME280;12763;55.802;37.404;2023-05-08T01:13:56;100985.34;;;4.12;77.14
24620;BME280;12763;55.802;37.404;2023-05-08T01:16:43;100985.91;;;4.06;77.59
24620;BME280;12763;55.802;37.404;2023-05-08T01:22:05;100982.47;;;4.04;77.38
24620;BME280;12763;55.802;37.404;2023-05-08T01:33:07;100997.13;;;3.93;78.76
24620;BME280;12763;55.802;37.404;2023-05-08T01:38:13;101000.00;;;4.01;79.49
24620;BME280;12763;55.802;37.404;2023-05-08T01:40:52;101006.31;;;4.02;79.69
24620;BME280;12763;55.802;37.404;2023-05-08T01:43:28;101000.59;;;4.05;79.30
24620;BME280;12763;55.802;37.404;2023-05-08T01:45:57;100989.78;;;4.03;78.71
24620;BME280;12763;55.802;37.404;2023-05-08T01:48:40;101007.75;;;4.06;79.38
24620;BME280;12763;55.802;37.404;2023-05-08T01:51:17;101009.78;;;4.04;79.98
24620;BME280;12763;55.802;37.404;2023-05-08T01:53:48;101021.25;;;3.98;80.47
24620;BME280;12763;55.802;37.404;2023-05-08T01:56:19;101017.25;;;4.02;79.96
24620;BME280;12763;55.802;37.404;2023-05-08T01:58:50;101020.69;;;3.94;80.47
24620;BME280;12763;55.802;37.404;2023-05-08T02:01:21;101024.47;;;4.03;80.43
24620;BME280;12763;55.802;37.404;2023-05-08T02:03:51;101028.19;;;4.02;80.18
24620;BME280;12763;55.802;37.404;2023-05-08T02:06:26;101025.28;;;4.03;80.95
24620;BME280;12763;55.802;37.404;2023-05-08T02:08:55;101022.44;;;4.05;80.77
24620;BME280;12763;55.802;37.404;2023-05-08T02:11:30;101020.28;;;3.99;80.86
24620;BME280;12763;55.802;37.404;2023-05-08T02:13:59;101024.09;;;3.87;81.94
24620;BME280;12763;55.802;37.404;2023-05-08T02:16:28;101026.72;;;3.88;82.50
24620;BME280;12763;55.802;37.404;2023-05-08T02:18:58;101025.25;;;3.84;82.12
24620;BME280;12763;55.802;37.404;2023-05-08T02:21:26;101035.34;;;3.84;81.75
24620;BME280;12763;55.802;37.404;2023-05-08T02:23:55;101028.25;;;3.81;82.17
24620;BME280;12763;55.802;37.404;2023-05-08T02:26:26;101033.31;;;3.86;81.83
24620;BME280;12763;55.802;37.404;2023-05-08T02:28:54;101029.50;;;4.07;80.18
24620;BME280;12763;55.802;37.404;2023-05-08T02:31:23;101032.22;;;4.17;79.05
24620;BME280;12763;55.802;37.404;2023-05-08T02:33:51;101036.56;;;4.20;79.28
24620;BME280;12763;55.802;37.404;2023-05-08T02:36:19;101034.94;;;4.07;79.32
24620;BME280;12763;55.802;37.404;2023-05-08T02:38:50;101040.56;;;4.15;79.08
24620;BME280;12763;55.802;37.404;2023-05-08T02:41:22;101034.53;;;4.22;78.27
24620;BME280;12763;55.802;37.404;2023-05-08T02:43:53;101047.34;;;4.40;76.25
24620;BME280;12763;55.802;37.404;2023-05-08T02:52:23;101048.06;;;4.42;76.85
24620;BME280;12763;55.802;37.404;2023-05-08T02:58:42;101058.72;;;4.74;74.93
24620;BME280;12763;55.802;37.404;2023-05-08T03:01:33;101057.00;;;4.83;73.94
24620;BME280;12763;55.802;37.404;2023-05-08T03:04:08;101064.19;;;4.84;72.81
24620;BME280;12763;55.802;37.404;2023-05-08T03:06:40;101072.50;;;4.92;72.86
24620;BME280;12763;55.802;37.404;2023-05-08T03:09:15;101082.31;;;5.04;72.35
24620;BME280;12763;55.802;37.404;2023-05-08T03:11:47;101076.41;;;4.99;71.82
24620;BME280;12763;55.802;37.404;2023-05-08T03:14:18;101075.66;;;5.16;70.83
24620;BME280;12763;55.802;37.404;2023-05-08T03:16:51;101074.06;;;5.23;71.29
24620;BME280;12763;55.802;37.404;2023-05-08T03:19:33;101077.31;;;5.36;70.15
24620;BME280;12763;55.802;37.404;2023-05-08T03:22:01;101075.47;;;5.37;69.71
24620;BME280;12763;55.802;37.404;2023-05-08T03:24:33;101080.75;;;5.48;69.78
24620;BME280;12763;55.802;37.404;2023-05-08T03:27:03;101074.41;;;5.47;69.25
24620;BME280;12763;55.802;37.404;2023-05-08T03:29:43;101080.75;;;5.57;68.81
24620;BME280;12763;55.802;37.404;2023-05-08T03:32:14;101076.97;;;5.58;68.19
24620;BME280;12763;55.802;37.404;2023-05-08T03:34:41;101076.09;;;5.67;67.82
24620;BME280;12763;55.802;37.404;2023-05-08T03:37:08;101081.84;;;5.64;67.94
24620;BME280;12763;55.802;37.404;2023-05-08T03:39:34;101074.34;;;5.66;68.23
24620;BME280;12763;55.802;37.404;2023-05-08T03:42:02;101081.53;;;5.77;67.46
24620;BME280;12763;55.802;37.404;2023-05-08T03:44:34;101088.72;;;5.87;67.14
24620;BME280;12763;55.802;37.404;2023-05-08T03:47:02;101086.22;;;5.94;67.19
24620;BME280;12763;55.802;37.404;2023-05-08T03:49:36;101090.66;;;6.05;66.61
24620;BME280;12763;55.802;37.404;2023-05-08T03:52:14;101088.84;;;6.13;66.32
24620;BME280;12763;55.802;37.404;2023-05-08T03:54:49;101093.00;;;6.27;66.16
24620;BME280;12763;55.802;37.404;2023-05-08T03:57:41;101090.78;;;6.30;65.88
24620;BME280;12763;55.802;37.404;2023-05-08T04:00:24;101091.44;;;6.42;65.67
24620;BME280;12763;55.802;37.404;2023-05-08T04:05:57;101096.06;;;6.59;64.71
24620;BME280;12763;55.802;37.404;2023-05-08T04:08:40;101102.13;;;6.63;64.17
24620;BME280;12763;55.802;37.404;2023-05-08T04:11:34;101098.19;;;6.65;63.99
24620;BME280;12763;55.802;37.404;2023-05-08T04:14:10;101092.47;;;6.76;64.07
24620;BME280;12763;55.802;37.404;2023-05-08T04:16:51;101094.13;;;6.87;63.40
24620;BME280;12763;55.802;37.404;2023-05-08T04:19:23;101095.91;;;6.96;62.75
24620;BME280;12763;55.802;37.404;2023-05-08T04:21:58;101095.25;;;7.20;62.03
24620;BME280;12763;55.802;37.404;2023-05-08T04:24:27;101088.16;;;7.35;61.72
24620;BME280;12763;55.802;37.404;2023-05-08T04:27:06;101099.28;;;7.51;60.95
24620;BME280;12763;55.802;37.404;2023-05-08T04:29:37;101091.03;;;7.51;60.01
24620;BME280;12763;55.802;37.404;2023-05-08T04:32:10;101096.25;;;7.62;59.60
24620;BME280;12763;55.802;37.404;2023-05-08T04:35:01;101091.50;;;7.72;59.47
24620;BME280;12763;55.802;37.404;2023-05-08T04:37:38;101093.69;;;7.94;58.51
24620;BME280;12763;55.802;37.404;2023-05-08T04:40:05;101101.06;;;7.94;58.03
24620;BME280;12763;55.802;37.404;2023-05-08T04:42:33;101096.66;;;8.01;57.95
24620;BME280;12763;55.802;37.404;2023-05-08T04:45:02;101087.22;;;8.11;57.36
24620;BME280;12763;55.802;37.404;2023-05-08T04:47:33;101097.81;;;8.32;56.68
24620;BME280;12763;55.802;37.404;2023-05-08T04:50:01;101091.34;;;8.15;56.24
24620;BME280;12763;55.802;37.404;2023-05-08T04:52:36;101093.78;;;8.18;56.02
24620;BME280;12763;55.802;37.404;2023-05-08T04:55:08;101095.88;;;8.24;55.82
24620;BME280;12763;55.802;37.404;2023-05-08T04:57:38;101093.19;;;8.33;55.14
24620;BME280;12763;55.802;37.404;2023-05-08T05:00:12;101093.06;;;8.50;54.51
24620;BME280;12763;55.802;37.404;2023-05-08T05:02:44;101098.09;;;8.71;54.11
24620;BME280;12763;55.802;37.404;2023-05-08T05:05:11;101098.09;;;8.87;53.61
24620;BME280;12763;55.802;37.404;2023-05-08T05:07:38;101095.03;;;9.06;52.97
24620;BME280;12763;55.802;37.404;2023-05-08T05:10:06;101098.97;;;9.04;52.60
24620;BME280;12763;55.802;37.404;2023-05-08T05:12:34;101099.16;;;8.86;51.83
24620;BME280;12763;55.802;37.404;2023-05-08T05:15:15;101107.25;;;9.04;51.64
24620;BME280;12763;55.802;37.404;2023-05-08T05:18:10;101096.06;;;9.13;50.89
24620;BME280;12763;55.802;37.404;2023-05-08T05:20:43;101103.97;;;9.40;50.10
24620;BME280;12763;55.802;37.404;2023-05-08T05:23:33;101108.78;;;9.63;49.70
24620;BME280;12763;55.802;37.404;2023-05-08T05:26:01;101106.00;;;9.71;49.07
24620;BME280;12763;55.802;37.404;2023-05-08T05:28:29;101111.34;;;9.64;49.08
24620;BME280;12763;55.802;37.404;2023-05-08T05:31:15;101108.25;;;9.59;49.45
24620;BME280;12763;55.802;37.404;2023-05-08T05:33:52;101110.81;;;9.77;49.19
24620;BME280;12763;55.802;37.404;2023-05-08T05:36:22;101112.91;;;9.75;48.73
24620;BME280;12763;55.802;37.404;2023-05-08T05:38:51;101113.41;;;9.62;48.78
24620;BME280;12763;55.802;37.404;2023-05-08T05:41:22;101113.63;;;9.36;48.64
24620;BME280;12763;55.802;37.404;2023-05-08T05:43:55;101110.50;;;9.64;47.13
24620;BME280;12763;55.802;37.404;2023-05-08T05:46:32;101119.59;;;9.88;47.40
24620;BME280;12763;55.802;37.404;2023-05-08T05:49:13;101120.66;;;9.63;46.90
24620;BME280;12763;55.802;37.404;2023-05-08T05:52:01;101116.28;;;9.93;46.59
24620;BME280;12763;55.802;37.404;2023-05-08T05:54:30;101106.94;;;10.18;45.81
24620;BME280;12763;55.802;37.404;2023-05-08T05:57:00;101109.84;;;10.09;46.48
24620;BME280;12763;55.802;37.404;2023-05-08T05:59:32;101110.69;;;10.25;45.29
24620;BME280;12763;55.802;37.404;2023-05-08T06:02:00;101114.41;;;9.93;46.05
24620;BME280;12763;55.802;37.404;2023-05-08T06:04:26;101108.19;;;10.38;45.70
24620;BME280;12763;55.802;37.404;2023-05-08T06:06:56;101116.41;;;10.54;45.24
24620;BME280;12763;55.802;37.404;2023-05-08T06:09:23;101111.88;;;10.61;44.43
24620;BME280;12763;55.802;37.404;2023-05-08T06:11:51;101112.13;;;10.75;44.03
24620;BME280;12763;55.802;37.404;2023-05-08T06:14:19;101107.88;;;10.33;44.18
24620;BME280;12763;55.802;37.404;2023-05-08T06:16:45;101110.91;;;10.77;43.36
24620;BME280;12763;55.802;37.404;2023-05-08T06:19:17;101100.44;;;10.95;42.22
24620;BME280;12763;55.802;37.404;2023-05-08T06:21:45;101104.69;;;11.06;42.23
24620;BME280;12763;55.802;37.404;2023-05-08T06:24:11;101110.34;;;10.90;42.35
24620;BME280;12763;55.802;37.404;2023-05-08T06:26:38;101104.91;;;11.19;41.70
24620;BME280;12763;55.802;37.404;2023-05-08T06:29:04;101110.81;;;11.16;41.72
24620;BME280;12763;55.802;37.404;2023-05-08T06:31:31;101111.00;;;11.52;41.58
24620;BME280;12763;55.802;37.404;2023-05-08T06:34:01;101108.44;;;11.88;40.92
24620;BME280;12763;55.802;37.404;2023-05-08T06:36:29;101105.41;;;11.97;40.33
24620;BME280;12763;55.802;37.404;2023-05-08T06:38:59;101106.84;;;12.22;40.25
24620;BME280;12763;55.802;37.404;2023-05-08T06:41:27;101107.59;;;12.31;40.12
24620;BME280;12763;55.802;37.404;2023-05-08T06:43:56;101109.41;;;12.74;39.62
24620;BME280;12763;55.802;37.404;2023-05-08T06:46:22;101107.44;;;12.68;39.21
24620;BME280;12763;55.802;37.404;2023-05-08T06:48:49;101103.13;;;13.02;38.28
24620;BME280;12763;55.802;37.404;2023-05-08T06:51:19;101108.53;;;12.88;38.64
24620;BME280;12763;55.802;37.404;2023-05-08T06:53:48;101103.28;;;12.43;38.62
24620;BME280;12763;55.802;37.404;2023-05-08T06:56:20;101106.53;;;11.73;38.96
24620;BME280;12763;55.802;37.404;2023-05-08T06:58:47;101104.91;;;11.42;38.25
24620;BME280;12763;55.802;37.404;2023-05-08T07:01:14;101096.81;;;11.55;39.12
24620;BME280;12763;55.802;37.404;2023-05-08T07:03:43;101098.66;;;11.25;39.28
24620;BME280;12763;55.802;37.404;2023-05-08T07:06:10;101098.00;;;11.23;38.93
24620;BME280;12763;55.802;37.404;2023-05-08T07:08:36;101097.78;;;11.25;38.28
24620;BME280;12763;55.802;37.404;2023-05-08T07:11:02;101103.81;;;11.05;39.10
24620;BME280;12763;55.802;37.404;2023-05-08T07:13:33;101097.19;;;11.37;38.73
24620;BME280;12763;55.802;37.404;2023-05-08T07:15:59;101100.09;;;11.36;38.47
24620;BME280;12763;55.802;37.404;2023-05-08T07:18:26;101102.56;;;11.53;38.07
24620;BME280;12763;55.802;37.404;2023-05-08T07:20:55;101098.50;;;11.41;38.16
24620;BME280;12763;55.802;37.404;2023-05-08T07:23:21;101094.22;;;11.91;37.16
24620;BME280;12763;55.802;37.404;2023-05-08T07:25:47;101087.94;;;11.97;36.59
24620;BME280;12763;55.802;37.404;2023-05-08T07:28:14;101087.94;;;11.97;36.73
24620;BME280;12763;55.802;37.404;2023-05-08T07:30:42;101091.00;;;12.02;36.81
24620;BME280;12763;55.802;37.404;2023-05-08T07:33:11;101082.31;;;11.75;36.75
24620;BME280;12763;55.802;37.404;2023-05-08T07:35:41;101084.50;;;11.80;37.17
24620;BME280;12763;55.802;37.404;2023-05-08T07:38:08;101083.28;;;11.45;37.59
24620;BME280;12763;55.802;37.404;2023-05-08T07:40:37;101087.72;;;11.69;37.37
24620;BME280;12763;55.802;37.404;2023-05-08T07:43:04;101087.56;;;12.14;37.07
24620;BME280;12763;55.802;37.404;2023-05-08T07:45:34;101089.75;;;12.69;36.25
24620;BME280;12763;55.802;37.404;2023-05-08T07:48:01;101083.63;;;13.31;35.38
24620;BME280;12763;55.802;37.404;2023-05-08T07:50:30;101076.16;;;13.59;35.00
24620;BME280;12763;55.802;37.404;2023-05-08T07:52:58;101075.75;;;13.90;34.33
24620;BME280;12763;55.802;37.404;2023-05-08T07:55:25;101077.16;;;14.41;34.00
24620;BME280;12763;55.802;37.404;2023-05-08T07:57:54;101078.91;;;14.55;33.47
24620;BME280;12763;55.802;37.404;2023-05-08T08:00:27;101076.94;;;13.74;34.04
24620;BME280;12763;55.802;37.404;2023-05-08T08:02:57;101075.28;;;13.52;34.32
24620;BME280;12763;55.802;37.404;2023-05-08T08:05:24;101080.56;;;13.26;34.98
24620;BME280;12763;55.802;37.404;2023-05-08T08:07:50;101084.81;;;13.22;35.07
24620;BME280;12763;55.802;37.404;2023-05-08T08:10:20;101077.50;;;13.14;35.59
24620;BME280;12763;55.802;37.404;2023-05-08T08:12:50;101085.31;;;12.89;35.78
24620;BME280;12763;55.802;37.404;2023-05-08T08:15:16;101074.34;;;12.81;35.71
24620;BME280;12763;55.802;37.404;2023-05-08T08:17:42;101076.56;;;13.07;35.21
24620;BME280;12763;55.802;37.404;2023-05-08T08:20:09;101075.50;;;13.29;35.16
24620;BME280;12763;55.802;37.404;2023-05-08T08:22:36;101074.78;;;13.42;35.32
24620;BME280;12763;55.802;37.404;2023-05-08T08:25:04;101080.91;;;13.65;34.93
24620;BME280;12763;55.802;37.404;2023-05-08T08:27:31;101069.34;;;13.62;34.40
24620;BME280;12763;55.802;37.404;2023-05-08T08:30:01;101065.28;;;13.85;33.99
24620;BME280;12763;55.802;37.404;2023-05-08T08:32:30;101072.34;;;13.88;34.15
24620;BME280;12763;55.802;37.404;2023-05-08T08:34:58;101075.66;;;14.04;34.20
24620;BME280;12763;55.802;37.404;2023-05-08T08:37:24;101066.06;;;14.48;33.72
24620;BME280;12763;55.802;37.404;2023-05-08T08:39:51;101063.22;;;14.82;33.34
24620;BME280;12763;55.802;37.404;2023-05-08T08:42:17;101065.75;;;14.77;32.85
24620;BME280;12763;55.802;37.404;2023-05-08T08:44:43;101061.03;;;14.78;32.38
24620;BME280;12763;55.802;37.404;2023-05-08T08:47:11;101060.22;;;14.97;32.23
24620;BME280;12763;55.802;37.404;2023-05-08T08:49:45;101060.03;;;14.98;31.80
24620;BME280;12763;55.802;37.404;2023-05-08T08:52:25;101067.66;;;14.70;31.90
24620;BME280;12763;55.802;37.404;2023-05-08T08:54:55;101069.78;;;13.59;33.39
24620;BME280;12763;55.802;37.404;2023-05-08T08:57:31;101072.13;;;13.13;33.78
24620;BME280;12763;55.802;37.404;2023-05-08T09:00:00;101059.59;;;13.38;33.81
24620;BME280;12763;55.802;37.404;2023-05-08T09:02:34;101069.06;;;13.22;33.78
24620;BME280;12763;55.802;37.404;2023-05-08T09:05:02;101071.88;;;13.29;33.55
24620;BME280;12763;55.802;37.404;2023-05-08T09:07:32;101054.28;;;13.71;33.49
24620;BME280;12763;55.802;37.404;2023-05-08T09:09:59;101070.22;;;12.92;34.19
24620;BME280;12763;55.802;37.404;2023-05-08T09:12:26;101072.34;;;13.11;33.66
24620;BME280;12763;55.802;37.404;2023-05-08T09:14:52;101070.47;;;13.39;33.16
24620;BME280;12763;55.802;37.404;2023-05-08T09:17:20;101061.00;;;13.83;32.81
24620;BME280;12763;55.802;37.404;2023-05-08T09:19:50;101069.69;;;14.07;32.19
24620;BME280;12763;55.802;37.404;2023-05-08T09:22:19;101064.56;;;14.45;32.03
24620;BME280;12763;55.802;37.404;2023-05-08T09:25:02;101059.38;;;14.90;31.54
24620;BME280;12763;55.802;37.404;2023-05-08T09:27:30;101064.22;;;14.68;31.80
24620;BME280;12763;55.802;37.404;2023-05-08T09:30:03;101056.34;;;14.78;31.45
24620;BME280;12763;55.802;37.404;2023-05-08T09:32:37;101055.56;;;15.17;31.16
24620;BME280;12763;55.802;37.404;2023-05-08T09:35:06;101057.72;;;15.41;31.53
24620;BME280;12763;55.802;37.404;2023-05-08T09:37:37;101060.47;;;14.35;32.15
24620;BME280;12763;55.802;37.404;2023-05-08T09:42:42;101057.72;;;14.07;32.74
24620;BME280;12763;55.802;37.404;2023-05-08T09:45:10;101060.44;;;13.66;32.75
24620;BME280;12763;55.802;37.404;2023-05-08T09:47:46;101062.09;;;13.88;32.58
24620;BME280;12763;55.802;37.404;2023-05-08T09:50:13;101062.00;;;14.09;32.29
24620;BME280;12763;55.802;37.404;2023-05-08T09:52:47;101059.66;;;14.41;31.97
24620;BME280;12763;55.802;37.404;2023-05-08T09:55:17;101058.63;;;14.55;31.66
24620;BME280;12763;55.802;37.404;2023-05-08T09:57:58;101051.53;;;14.46;31.47
24620;BME280;12763;55.802;37.404;2023-05-08T10:00:26;101056.63;;;14.36;31.63
24620;BME280;12763;55.802;37.404;2023-05-08T10:02:57;101053.25;;;14.47;31.52
24620;BME280;12763;55.802;37.404;2023-05-08T10:05:31;101055.22;;;14.59;31.32
24620;BME280;12763;55.802;37.404;2023-05-08T10:08:19;101049.09;;;14.77;30.86
24620;BME280;12763;55.802;37.404;2023-05-08T10:10:49;101045.47;;;14.90;31.11
24620;BME280;12763;55.802;37.404;2023-05-08T10:13:23;101045.50;;;15.22;30.83
24620;BME280;12763;55.802;37.404;2023-05-08T10:16:00;101046.59;;;15.21;30.33
24620;BME280;12763;55.802;37.404;2023-05-08T10:18:28;101044.03;;;15.72;30.21
24620;BME280;12763;55.802;37.404;2023-05-08T10:21:09;101042.72;;;15.88;29.48
24620;BME280;12763;55.802;37.404;2023-05-08T10:23:36;101043.09;;;16.18;29.05
24620;BME280;12763;55.802;37.404;2023-05-08T10:26:09;101036.53;;;15.66;28.48
24620;BME280;12763;55.802;37.404;2023-05-08T10:28:58;101037.84;;;15.64;28.48
24620;BME280;12763;55.802;37.404;2023-05-08T10:31:33;101033.34;;;15.37;28.57
24620;BME280;12763;55.802;37.404;2023-05-08T10:34:02;101030.91;;;16.12;28.09
24620;BME280;12763;55.802;37.404;2023-05-08T10:36:31;101029.41;;;16.67;27.50
24620;BME280;12763;55.802;37.404;2023-05-08T10:38:58;101031.75;;;16.70;27.47
24620;BME280;12763;55.802;37.404;2023-05-08T10:41:26;101023.56;;;16.24;27.30
24620;BME280;12763;55.802;37.404;2023-05-08T10:43:53;101024.13;;;15.82;28.20
24620;BME280;12763;55.802;37.404;2023-05-08T10:46:51;101017.53;;;16.78;27.25
24620;BME280;12763;55.802;37.404;2023-05-08T10:49:29;101009.16;;;17.66;26.61
24620;BME280;12763;55.802;37.404;2023-05-08T10:52:42;101013.66;;;17.85;25.38
24620;BME280;12763;55.802;37.404;2023-05-08T10:55:30;101006.94;;;18.10;25.18
24620;BME280;12763;55.802;37.404;2023-05-08T11:03:42;100994.47;;;20.13;23.09
24620;BME280;12763;55.802;37.404;2023-05-08T11:06:13;100988.25;;;20.46;24.43
24620;BME280;12763;55.802;37.404;2023-05-08T11:08:50;100998.19;;;19.90;23.83
24620;BME280;12763;55.802;37.404;2023-05-08T11:11:22;100995.66;;;19.13;25.37
24620;BME280;12763;55.802;37.404;2023-05-08T11:13:58;100997.16;;;18.01;24.63
24620;BME280;12763;55.802;37.404;2023-05-08T11:19:20;100992.88;;;16.37;26.64
24620;BME280;12763;55.802;37.404;2023-05-08T11:24:54;100996.38;;;16.20;26.37
24620;BME280;12763;55.802;37.404;2023-05-08T11:30:22;101003.16;;;15.01;28.89
24620;BME280;12763;55.802;37.404;2023-05-08T11:33:16;100996.66;;;14.07;30.86
24620;BME280;12763;55.802;37.404;2023-05-08T11:38:35;100994.25;;;13.97;31.13
24620;BME280;12763;55.802;37.404;2023-05-08T11:41:21;101001.91;;;13.54;31.78
24620;BME280;12763;55.802;37.404;2023-05-08T11:46:52;101008.22;;;14.10;31.34
24620;BME280;12763;55.802;37.404;2023-05-08T11:49:21;101010.34;;;14.15;31.21
24620;BME280;12763;55.802;37.404;2023-05-08T11:51:49;101015.13;;;13.87;31.53
24620;BME280;12763;55.802;37.404;2023-05-08T11:54:21;101002.91;;;13.75;31.89
24620;BME280;12763;55.802;37.404;2023-05-08T11:56:51;101006.81;;;14.28;31.10
24620;BME280;12763;55.802;37.404;2023-05-08T11:59:19;101011.69;;;14.26;31.33
24620;BME280;12763;55.802;37.404;2023-05-08T12:01:50;101006.22;;;14.39;31.21
24620;BME280;12763;55.802;37.404;2023-05-08T12:04:17;101004.34;;;14.05;31.21
24620;BME280;12763;55.802;37.404;2023-05-08T12:06:43;101014.19;;;14.07;31.44
24620;BME280;12763;55.802;37.404;2023-05-08T12:09:20;101010.72;;;13.99;31.11
24620;BME280;12763;55.802;37.404;2023-05-08T12:11:55;101011.13;;;14.37;30.99
24620;BME280;12763;55.802;37.404;2023-05-08T12:14:23;101003.34;;;14.80;30.66
24620;BME280;12763;55.802;37.404;2023-05-08T12:16:52;101003.38;;;15.25;30.12
24620;BME280;12763;55.802;37.404;2023-05-08T12:19:19;100996.97;;;15.32;30.00
24620;BME280;12763;55.802;37.404;2023-05-08T12:21:46;100999.47;;;15.92;29.78
24620;BME280;12763;55.802;37.404;2023-05-08T12:24:17;100998.97;;;16.08;29.59
24620;BME280;12763;55.802;37.404;2023-05-08T12:26:53;100996.72;;;16.36;29.45
24620;BME280;12763;55.802;37.404;2023-05-08T12:29:21;100994.50;;;16.52;29.24
24620;BME280;12763;55.802;37.404;2023-05-08T12:31:47;100992.94;;;16.69;28.96
24620;BME280;12763;55.802;37.404;2023-05-08T12:34:14;100992.66;;;16.77;28.78
24620;BME280;12763;55.802;37.404;2023-05-08T12:36:43;100981.56;;;16.70;28.75
24620;BME280;12763;55.802;37.404;2023-05-08T12:39:14;100992.06;;;16.68;28.42
24620;BME280;12763;55.802;37.404;2023-05-08T12:41:48;100988.25;;;16.12;28.48
24620;BME280;12763;55.802;37.404;2023-05-08T12:44:25;100996.72;;;16.36;27.74
24620;BME280;12763;55.802;37.404;2023-05-08T12:46:53;100982.88;;;16.17;28.39
24620;BME280;12763;55.802;37.404;2023-05-08T12:49:30;100976.75;;;15.95;28.26
24620;BME280;12763;55.802;37.404;2023-05-08T12:52:03;100977.81;;;15.94;28.00
24620;BME280;12763;55.802;37.404;2023-05-08T12:54:38;100973.56;;;16.42;27.78
24620;BME280;12763;55.802;37.404;2023-05-08T12:57:11;100973.47;;;16.62;27.36
24620;BME280;12763;55.802;37.404;2023-05-08T12:59:38;100973.53;;;16.87;27.23
24620;BME280;12763;55.802;37.404;2023-05-08T13:02:13;100972.09;;;16.78;27.08
24620;BME280;12763;55.802;37.404;2023-05-08T13:04:46;100970.81;;;17.05;26.81
24620;BME280;12763;55.802;37.404;2023-05-08T13:07:13;100979.69;;;16.13;27.51
24620;BME280;12763;55.802;37.404;2023-05-08T13:09:39;100968.53;;;16.13;27.73
24620;BME280;12763;55.802;37.404;2023-05-08T13:12:21;100964.66;;;16.96;26.77
24620;BME280;12763;55.802;37.404;2023-05-08T13:14:47;100958.84;;;17.72;26.01
24620;BME280;12763;55.802;37.404;2023-05-08T13:17:17;100957.88;;;17.60;26.14
24620;BME280;12763;55.802;37.404;2023-05-08T13:19:43;100951.91;;;17.56;26.29
24620;BME280;12763;55.802;37.404;2023-05-08T13:22:13;100953.50;;;17.21;26.67
24620;BME280;12763;55.802;37.404;2023-05-08T13:24:39;100950.94;;;16.95;26.84
24620;BME280;12763;55.802;37.404;2023-05-08T13:27:09;100949.94;;;17.14;26.80
24620;BME280;12763;55.802;37.404;2023-05-08T13:29:38;100947.94;;;17.21;26.53
24620;BME280;12763;55.802;37.404;2023-05-08T13:32:04;100944.28;;;16.96;26.82
24620;BME280;12763;55.802;37.404;2023-05-08T13:34:34;100953.72;;;15.68;27.75
24620;BME280;12763;55.802;37.404;2023-05-08T13:37:04;100954.19;;;15.26;28.09
24620;BME280;12763;55.802;37.404;2023-05-08T13:39:34;100957.59;;;14.82;28.69
24620;BME280;12763;55.802;37.404;2023-05-08T13:42:03;100960.06;;;14.44;29.19
24620;BME280;12763;55.802;37.404;2023-05-08T13:44:29;100954.78;;;14.62;29.22
24620;BME280;12763;55.802;37.404;2023-05-08T13:46:58;100958.88;;;14.73;29.13
24620;BME280;12763;55.802;37.404;2023-05-08T13:49:25;100965.03;;;14.62;29.22
24620;BME280;12763;55.802;37.404;2023-05-08T13:51:52;100964.00;;;14.76;29.31
24620;BME280;12763;55.802;37.404;2023-05-08T13:54:18;100962.69;;;14.72;29.31
24620;BME280;12763;55.802;37.404;2023-05-08T13:56:48;100951.63;;;14.85;29.12